createdAt,value
2022-08-07T00:02:37.131Z,30.58
2022-08-07T00:05:05.967Z,29.65
2022-08-07T00:07:40.317Z,30.67
2022-08-07T00:10:30.503Z,30.20
2022-08-07T00:13:09.750Z,30.50
2022-08-07T00:15:53.113Z,32.97
2022-08-07T00:18:23.944Z,29.45
2022-08-07T00:21:01.683Z,30.40
2022-08-07T00:23:33.857Z,29.42
2022-08-07T00:26:13.239Z,29.50
2022-08-07T00:28:56.813Z,29.05
2022-08-07T00:31:37.855Z,28.83
2022-08-07T00:34:10.268Z,27.77
2022-08-07T00:36:43.359Z,29.13
2022-08-07T00:39:16.869Z,29.38
2022-08-07T00:42:01.435Z,29.85
2022-08-07T00:44:34.561Z,28.83
2022-08-07T00:47:04.131Z,27.85
2022-08-07T00:50:20.390Z,27.90
2022-08-07T00:52:24.875Z,28.10
2022-08-07T00:54:54.330Z,28.70
2022-08-07T00:57:25.937Z,27.85
2022-08-07T00:59:55.377Z,28.98
2022-08-07T01:02:28.419Z,29.17
2022-08-07T01:05:00.727Z,29.75
2022-08-07T01:07:31.540Z,29.67
2022-08-07T01:10:06.946Z,29.02
2022-08-07T01:12:53.397Z,29.17
2022-08-07T01:16:00.853Z,47.15
2022-08-07T01:18:17.049Z,28.90
2022-08-07T01:21:22.574Z,30.08
2022-08-07T01:23:54.907Z,26.17
2022-08-07T01:26:26.252Z,26.77
2022-08-07T01:28:56.466Z,26.98
2022-08-07T01:31:41.982Z,29.60
2022-08-07T01:36:52.643Z,29.35
2022-08-07T01:39:40.360Z,28.50
2022-08-07T01:42:57.358Z,28.80
2022-08-07T01:45:36.379Z,42.05
2022-08-07T01:48:29.352Z,33.22
2022-08-07T01:51:24.418Z,46.45
2022-08-07T01:54:11.977Z,59.47
2022-08-07T01:59:45.144Z,72.22
2022-08-07T02:03:12.137Z,73.43
2022-08-07T02:05:15.845Z,76.93
2022-08-07T02:07:53.304Z,78.88
2022-08-07T02:10:33.744Z,73.28
2022-08-07T02:13:07.820Z,75.13
2022-08-07T02:15:53.121Z,74.13
2022-08-07T02:18:25.894Z,76.28
2022-08-07T02:21:00.994Z,75.07
2022-08-07T02:23:40.599Z,78.40
2022-08-07T02:26:31.695Z,77.70
2022-08-07T02:29:00.082Z,77.57
2022-08-07T02:31:32.608Z,77.85
2022-08-07T02:34:11.692Z,76.80
2022-08-07T02:36:53.675Z,76.70
2022-08-07T02:39:43.802Z,75.97
2022-08-07T02:42:18.546Z,80.57
2022-08-07T02:44:51.890Z,81.07
2022-08-07T02:47:23.917Z,78.87
2022-08-07T02:50:01.736Z,80.70
2022-08-07T02:53:10.914Z,79.25
2022-08-07T02:56:03.371Z,77.57
2022-08-07T02:58:39.799Z,81.63
2022-08-07T03:01:19.103Z,86.00
2022-08-07T03:04:12.637Z,81.17
2022-08-07T03:06:45.959Z,87.15
2022-08-07T03:09:44.697Z,91.13
2022-08-07T03:12:14.200Z,83.50
2022-08-07T03:14:56.873Z,97.03
2022-08-07T03:17:26.801Z,82.50
2022-08-07T03:19:57.642Z,86.20
2022-08-07T03:22:30.673Z,86.95
2022-08-07T03:25:01.496Z,83.20
2022-08-07T03:27:58.691Z,82.80
2022-08-07T03:30:28.667Z,76.65
2022-08-07T03:33:02.432Z,74.03
2022-08-07T03:35:43.660Z,73.63
2022-08-07T03:38:25.594Z,71.85
2022-08-07T03:41:02.138Z,70.88
2022-08-07T03:43:36.090Z,70.80
2022-08-07T03:46:10.547Z,73.28
2022-08-07T03:49:02.045Z,77.63
2022-08-07T03:51:47.765Z,77.32
2022-08-07T03:54:35.488Z,74.50
2022-08-07T03:59:05.551Z,74.38
2022-08-07T04:00:02.656Z,76.57
2022-08-07T04:02:47.137Z,76.38
2022-08-07T04:05:40.204Z,74.38
2022-08-07T04:08:21.106Z,72.72
2022-08-07T04:10:54.428Z,74.72
2022-08-07T04:14:09.873Z,69.68
2022-08-07T04:16:35.657Z,72.72
2022-08-07T04:19:15.245Z,70.95
2022-08-07T04:21:59.099Z,75.30
2022-08-07T04:24:38.782Z,73.13
2022-08-07T04:27:20.404Z,76.60
2022-08-07T04:30:01.244Z,77.90
2022-08-07T04:32:48.158Z,74.28
2022-08-07T04:35:35.278Z,75.20
2022-08-07T04:38:11.419Z,74.80
2022-08-07T04:40:51.796Z,75.93
2022-08-07T04:44:11.722Z,74.63
2022-08-07T04:47:08.269Z,76.30
2022-08-07T04:50:03.888Z,78.05
2022-08-07T04:52:51.761Z,78.80
2022-08-07T04:58:24.302Z,74.20
2022-08-07T04:58:49.675Z,74.85
2022-08-07T05:01:21.079Z,75.60
2022-08-07T05:04:28.054Z,75.80
2022-08-07T05:07:19.998Z,75.68
2022-08-07T05:10:11.142Z,74.70
2022-08-07T05:12:53.639Z,78.78
2022-08-07T05:15:32.091Z,78.57
2022-08-07T05:18:09.336Z,73.88
2022-08-07T05:20:47.533Z,73.50
2022-08-07T05:23:37.114Z,72.40
2022-08-07T05:26:18.718Z,75.95
2022-08-07T05:28:58.627Z,74.20
2022-08-07T05:31:39.525Z,71.72
2022-08-07T05:34:18.385Z,68.80
2022-08-07T05:36:52.934Z,73.60
2022-08-07T05:40:06.821Z,75.28
2022-08-07T05:42:34.261Z,69.65
2022-08-07T05:45:26.327Z,67.80
2022-08-07T05:48:03.317Z,66.95
2022-08-07T05:50:43.365Z,61.47
2022-08-07T05:54:12.816Z,58.92
2022-08-07T05:56:06.965Z,63.10
2022-08-07T05:58:52.417Z,69.45
2022-08-07T06:01:35.627Z,72.80
2022-08-07T06:04:09.175Z,59.70
2022-08-07T06:06:46.316Z,55.50
2022-08-07T06:09:19.283Z,62.50
2022-08-07T06:11:51.269Z,63.22
2022-08-07T06:14:28.588Z,60.28
2022-08-07T06:17:07.325Z,57.08
2022-08-07T06:19:51.876Z,56.28
2022-08-07T06:22:38.727Z,59.53
2022-08-07T06:25:26.534Z,58.53
2022-08-07T06:28:07.677Z,55.22
2022-08-07T06:30:42.742Z,56.17
2022-08-07T06:33:20.069Z,57.38
2022-08-07T06:36:06.889Z,61.45
2022-08-07T06:38:59.546Z,58.35
2022-08-07T06:42:01.666Z,62.15
2022-08-07T06:45:11.314Z,65.10
2022-08-07T06:47:48.307Z,49.38
2022-08-07T06:50:30.450Z,45.22
2022-08-07T06:53:04.200Z,42.60
2022-08-07T06:55:47.895Z,43.20
2022-08-07T06:58:28.814Z,42.97
2022-08-07T07:01:14.183Z,50.83
2022-08-07T07:03:49.244Z,37.15
2022-08-07T07:06:27.115Z,37.35
2022-08-07T07:08:56.856Z,37.53
2022-08-07T07:12:07.723Z,32.20
2022-08-07T07:14:19.025Z,29.73
2022-08-07T07:19:55.923Z,29.85
2022-08-07T07:22:36.008Z,36.37
2022-08-07T07:26:30.687Z,29.20
2022-08-07T07:28:42.167Z,297.73
2022-08-07T07:31:44.150Z,26.60
2022-08-07T07:34:18.274Z,24.15
2022-08-07T07:36:53.845Z,24.13
2022-08-07T07:39:25.898Z,25.52
2022-08-07T07:42:17.624Z,25.77
2022-08-07T07:44:50.634Z,25.52
2022-08-07T07:47:23.632Z,26.02
2022-08-07T07:50:34.692Z,26.55
2022-08-07T07:52:46.918Z,38.90
2022-08-07T07:55:23.161Z,26.15
2022-08-07T07:57:58.162Z,30.02
2022-08-07T08:00:31.489Z,33.92
2022-08-07T08:03:09.016Z,32.85
2022-08-07T08:05:54.846Z,32.40
2022-08-07T08:08:35.238Z,35.20
2022-08-07T08:11:08.596Z,57.83
2022-08-07T08:13:55.176Z,39.55
2022-08-07T08:16:31.022Z,37.85
2022-08-07T08:19:17.990Z,38.15
2022-08-07T08:22:11.545Z,43.67
2022-08-07T08:25:18.690Z,38.75
2022-08-07T08:28:01.734Z,37.35
2022-08-07T08:30:42.484Z,39.25
2022-08-07T08:33:19.547Z,43.95
2022-08-07T08:35:56.350Z,42.08
2022-08-07T08:41:05.520Z,40.15
2022-08-07T08:43:42.170Z,45.13
2022-08-07T08:46:38.642Z,68.10
2022-08-07T08:49:32.748Z,43.90
2022-08-07T08:55:07.856Z,41.05
2022-08-07T08:57:45.213Z,45.42
2022-08-07T09:00:14.973Z,47.13
2022-08-07T09:02:53.543Z,47.90
2022-08-07T09:05:59.855Z,47.83
2022-08-07T09:09:30.133Z,49.03
2022-08-07T09:12:20.070Z,48.17
2022-08-07T09:16:21.617Z,48.00
2022-08-07T09:18:33.728Z,47.72
2022-08-07T09:21:57.940Z,48.17
2022-08-07T09:24:59.774Z,45.58
2022-08-07T09:28:03.102Z,47.78
2022-08-07T09:31:15.397Z,49.30
2022-08-07T09:34:33.184Z,49.05
2022-08-07T09:37:03.274Z,67.80
2022-08-07T09:40:00.586Z,38.58
2022-08-07T09:42:53.320Z,37.72
2022-08-07T09:47:24.644Z,37.67
2022-08-07T09:50:01.738Z,36.70
2022-08-07T09:52:10.809Z,55.28
2022-08-07T09:54:47.933Z,41.08
2022-08-07T09:57:53.719Z,39.25
2022-08-07T10:00:31.949Z,30.85
2022-08-07T10:04:04.943Z,26.92
2022-08-07T10:06:38.854Z,28.83
2022-08-07T10:09:59.071Z,30.25
2022-08-07T10:14:00.570Z,34.58
2022-08-07T10:17:01.103Z,62.30
2022-08-07T10:20:13.255Z,33.38
2022-08-07T10:23:02.711Z,37.60
2022-08-07T10:26:13.258Z,28.17
2022-08-07T10:29:02.647Z,24.75
2022-08-07T10:32:31.569Z,27.33
2022-08-07T10:35:14.882Z,20.83
2022-08-07T10:38:21.653Z,21.60
2022-08-07T10:41:07.611Z,20.35
2022-08-07T10:43:45.213Z,21.30
2022-08-07T10:46:20.410Z,20.40
2022-08-07T10:49:10.886Z,20.98
2022-08-07T10:52:02.121Z,19.13
2022-08-07T10:54:53.518Z,18.67
2022-08-07T10:57:39.585Z,17.50
2022-08-07T11:00:39.154Z,16.27
2022-08-07T11:03:20.871Z,15.40
2022-08-07T11:06:26.735Z,15.80
2022-08-07T11:11:36.112Z,15.27
2022-08-07T11:14:45.488Z,15.45
2022-08-07T11:17:43.246Z,13.80
2022-08-07T11:20:27.350Z,12.77
2022-08-07T11:23:26.275Z,13.23
2022-08-07T11:26:06.346Z,12.93
2022-08-07T11:28:51.329Z,12.05
2022-08-07T11:31:47.708Z,10.35
2022-08-07T11:34:43.381Z,11.20
2022-08-07T11:37:58.443Z,10.70
2022-08-07T11:40:45.318Z,10.40
2022-08-07T11:43:41.589Z,10.65
2022-08-07T11:46:42.791Z,11.32
2022-08-07T11:49:51.155Z,13.02
2022-08-07T11:52:10.541Z,11.05
2022-08-07T11:55:13.171Z,10.48
2022-08-07T11:58:16.559Z,10.40
2022-08-07T12:01:20.150Z,10.52
2022-08-07T12:04:12.373Z,9.77
2022-08-07T12:07:03.033Z,9.57
2022-08-07T12:09:47.318Z,9.52
2022-08-07T12:12:25.008Z,10.50
2022-08-07T12:15:17.412Z,9.38
2022-08-07T12:18:30.667Z,9.00
2022-08-07T12:21:55.911Z,8.40
2022-08-07T12:24:37.934Z,8.35
2022-08-07T12:27:16.199Z,8.80
2022-08-07T12:29:51.582Z,9.02
2022-08-07T12:32:35.496Z,8.27
2022-08-07T12:35:08.333Z,9.18
2022-08-07T12:38:09.720Z,8.80
2022-08-07T12:40:50.453Z,9.45
2022-08-07T12:44:02.790Z,9.25
2022-08-07T12:46:26.653Z,10.50
2022-08-07T12:49:44.720Z,9.85
2022-08-07T12:52:46.160Z,8.50
2022-08-07T12:55:40.834Z,8.60
2022-08-07T12:58:15.350Z,8.60
2022-08-07T13:00:51.604Z,9.85
2022-08-07T13:04:02.553Z,10.35
2022-08-07T13:06:54.205Z,9.50
2022-08-07T13:10:20.931Z,10.20
2022-08-07T13:13:12.025Z,9.07
2022-08-07T13:16:11.521Z,8.70
2022-08-07T13:18:58.041Z,9.65
2022-08-07T13:21:37.830Z,10.02
2022-08-07T13:24:31.666Z,10.20
2022-08-07T13:27:12.749Z,12.35
2022-08-07T13:29:59.185Z,10.57
2022-08-07T13:32:38.270Z,10.45
2022-08-07T13:35:15.819Z,12.50
2022-08-07T13:37:59.000Z,12.05
2022-08-07T13:40:43.235Z,14.75
2022-08-07T13:43:15.243Z,11.63
2022-08-07T13:46:20.895Z,11.73
2022-08-07T13:48:40.811Z,14.27
2022-08-07T13:51:28.533Z,13.70
2022-08-07T13:54:07.311Z,13.52
2022-08-07T13:56:41.363Z,21.20
2022-08-07T13:59:25.279Z,24.20
2022-08-07T14:02:08.437Z,12.80
2022-08-07T14:04:56.545Z,23.27
2022-08-07T14:07:31.574Z,38.50
2022-08-07T14:10:21.608Z,30.92
2022-08-07T14:13:00.721Z,39.47
2022-08-07T14:15:39.515Z,40.30
2022-08-07T14:18:24.114Z,41.65
2022-08-07T14:22:00.458Z,18.35
2022-08-07T14:24:22.972Z,21.95
2022-08-07T14:26:59.784Z,29.92
2022-08-07T14:30:09.527Z,36.80
2022-08-07T14:32:24.937Z,16.50
2022-08-07T14:34:55.844Z,15.30
2022-08-07T14:37:35.996Z,27.60
2022-08-07T14:40:15.752Z,22.00
2022-08-07T14:43:01.167Z,31.25
2022-08-07T14:45:51.071Z,27.35
2022-08-07T14:48:28.355Z,30.30
2022-08-07T14:51:20.676Z,29.52
2022-08-07T14:54:09.847Z,22.40
2022-08-07T14:56:44.607Z,20.83
2022-08-07T15:00:03.738Z,17.40
2022-08-07T15:02:31.739Z,16.42
2022-08-07T15:05:20.234Z,17.50
2022-08-07T15:10:58.649Z,22.52
2022-08-07T15:16:33.558Z,16.80
2022-08-07T15:22:04.666Z,16.77
2022-08-07T15:25:14.834Z,16.10
2022-08-07T15:27:31.583Z,15.25
2022-08-07T15:33:03.820Z,15.05
2022-08-07T15:44:18.287Z,21.00
2022-08-07T15:46:56.773Z,18.98
2022-08-07T15:52:30.186Z,17.58
2022-08-07T15:55:03.753Z,17.67
2022-08-07T15:57:40.120Z,24.48
2022-08-07T16:00:31.133Z,20.30
2022-08-07T16:05:34.144Z,16.90
2022-08-07T16:08:32.925Z,16.85
2022-08-07T16:11:26.702Z,17.08
2022-08-07T16:14:12.504Z,15.77
2022-08-07T16:16:57.114Z,17.88
2022-08-07T16:19:58.736Z,16.85
2022-08-07T16:22:55.173Z,17.40
2022-08-07T16:25:54.424Z,17.70
2022-08-07T16:30:08.756Z,17.02
2022-08-07T16:31:51.046Z,17.25
2022-08-07T16:34:45.515Z,16.20
2022-08-07T16:40:31.856Z,15.57
2022-08-07T16:43:12.393Z,14.75
2022-08-07T16:46:34.587Z,16.45
2022-08-07T16:50:27.148Z,15.00
2022-08-07T16:52:41.707Z,14.60
2022-08-07T16:55:08.370Z,14.55
2022-08-07T16:58:15.902Z,16.52
2022-08-07T17:01:22.929Z,15.05
2022-08-07T17:03:59.422Z,17.50
2022-08-07T17:07:04.021Z,14.88
2022-08-07T17:10:06.503Z,15.02
2022-08-07T17:12:44.052Z,16.45
2022-08-07T17:15:17.126Z,15.57
2022-08-07T17:17:49.302Z,14.55
2022-08-07T17:20:39.819Z,16.17
2022-08-07T17:23:37.703Z,14.70
2022-08-07T17:26:22.517Z,15.02
2022-08-07T17:29:04.541Z,14.98
2022-08-07T17:32:03.344Z,15.85
2022-08-07T17:35:50.341Z,13.63
2022-08-07T17:38:32.135Z,14.02
2022-08-07T17:42:00.637Z,13.55
2022-08-07T17:44:41.431Z,14.73
2022-08-07T17:47:38.612Z,13.57
2022-08-07T17:50:54.046Z,13.93
2022-08-07T17:54:01.081Z,14.55
2022-08-07T17:56:26.033Z,12.90
2022-08-07T17:58:57.786Z,13.40
2022-08-07T18:01:51.086Z,12.90
2022-08-07T18:04:31.130Z,12.95
2022-08-07T18:07:20.942Z,12.15
2022-08-07T18:10:32.671Z,12.73
2022-08-07T18:13:20.602Z,13.73
2022-08-07T18:16:31.118Z,12.27
2022-08-07T18:21:03.666Z,12.00
2022-08-07T18:22:17.021Z,11.70
2022-08-07T18:24:51.989Z,12.90
2022-08-07T18:27:39.638Z,12.05
2022-08-07T18:30:31.875Z,12.02
2022-08-07T18:33:18.316Z,12.43
2022-08-07T18:36:32.806Z,12.50
2022-08-07T18:40:08.011Z,13.93
2022-08-07T18:42:19.442Z,13.00
2022-08-07T18:45:42.929Z,12.52
2022-08-07T18:50:06.766Z,11.27
2022-08-07T18:51:11.965Z,12.85
2022-08-07T18:54:05.599Z,13.60
2022-08-07T18:57:29.492Z,11.57
2022-08-07T19:00:32.662Z,11.82
2022-08-07T19:03:38.970Z,12.13
2022-08-07T19:06:16.826Z,11.75
2022-08-07T19:08:54.964Z,12.65
2022-08-07T19:11:34.865Z,12.05
2022-08-07T19:14:20.072Z,11.95
2022-08-07T19:17:04.802Z,11.93
2022-08-07T19:20:29.912Z,12.35
2022-08-07T19:23:18.413Z,11.88
2022-08-07T19:26:25.326Z,12.35
2022-08-07T19:30:58.031Z,12.30
2022-08-07T19:32:09.701Z,12.82
2022-08-07T19:34:36.233Z,12.93
2022-08-07T19:37:55.361Z,15.95
2022-08-07T19:40:30.584Z,11.73
2022-08-07T19:43:02.822Z,10.88
2022-08-07T19:46:05.320Z,12.68
2022-08-07T19:48:43.902Z,11.07
2022-08-07T19:51:50.465Z,10.60
2022-08-07T19:54:33.669Z,11.35
2022-08-07T19:58:02.755Z,11.25
2022-08-07T20:00:02.129Z,10.98
2022-08-07T20:02:51.899Z,10.23
2022-08-07T20:05:29.554Z,14.00
2022-08-07T20:08:02.838Z,10.73
2022-08-07T20:10:54.445Z,10.77
2022-08-07T20:13:33.698Z,10.88
2022-08-07T20:16:04.501Z,10.32
2022-08-07T20:18:35.126Z,11.38
2022-08-07T20:21:14.359Z,12.40
2022-08-07T20:23:53.537Z,10.63
2022-08-07T20:26:32.212Z,11.00
2022-08-07T20:29:10.166Z,9.75
2022-08-07T20:31:46.556Z,10.35
2022-08-07T20:34:40.037Z,9.80
2022-08-07T20:37:10.351Z,11.45
2022-08-07T20:40:02.757Z,10.05
2022-08-07T20:42:35.329Z,10.63
2022-08-07T20:45:33.640Z,11.15
2022-08-07T20:47:58.801Z,9.75
2022-08-07T20:50:30.622Z,10.48
2022-08-07T20:53:01.877Z,10.43
2022-08-07T20:55:35.973Z,9.70
2022-08-07T20:58:11.990Z,10.63
2022-08-07T21:00:45.075Z,10.00
2022-08-07T21:03:19.278Z,10.38
2022-08-07T21:06:21.730Z,9.93
2022-08-07T21:09:15.588Z,10.10
2022-08-07T21:11:51.462Z,10.70
2022-08-07T21:14:34.172Z,12.25
2022-08-07T21:18:06.491Z,14.77
2022-08-07T21:20:07.338Z,12.23
2022-08-07T21:22:51.399Z,10.40
2022-08-07T21:25:38.907Z,10.23
2022-08-07T21:28:49.787Z,10.70
2022-08-07T21:31:49.264Z,11.40
2022-08-07T21:34:26.761Z,10.88
2022-08-07T21:37:09.832Z,10.60
2022-08-07T21:39:48.055Z,9.85
2022-08-07T21:42:42.583Z,10.05
2022-08-07T21:46:07.763Z,9.85
2022-08-07T21:48:44.034Z,11.50
2022-08-07T21:51:32.115Z,21.15
2022-08-07T21:54:20.250Z,10.53
2022-08-07T21:56:57.941Z,11.85
2022-08-07T22:00:02.996Z,8.75
2022-08-07T22:02:32.049Z,9.48
2022-08-07T22:05:05.901Z,47.05
2022-08-07T22:07:58.939Z,8.68
2022-08-07T22:10:35.581Z,8.57
2022-08-07T22:13:13.779Z,8.70
2022-08-07T22:16:42.712Z,8.40
2022-08-07T22:19:40.923Z,8.18
2022-08-07T22:22:21.570Z,8.35
2022-08-07T22:25:08.331Z,8.02
2022-08-07T22:28:06.400Z,7.97
2022-08-07T22:30:52.689Z,7.82
2022-08-07T22:33:53.179Z,16.35
2022-08-07T22:36:38.396Z,15.35
2022-08-07T22:39:35.332Z,8.00
2022-08-07T22:42:29.595Z,7.90
2022-08-07T22:45:04.219Z,7.60
2022-08-07T22:48:00.901Z,7.57
2022-08-07T22:51:17.111Z,7.65
2022-08-07T22:56:58.880Z,7.20
2022-08-07T22:59:53.295Z,7.63
2022-08-07T23:02:38.281Z,7.63
2022-08-07T23:06:07.587Z,7.70
2022-08-07T23:08:32.023Z,7.47
2022-08-07T23:11:24.696Z,8.02
2022-08-07T23:14:19.623Z,7.72
2022-08-07T23:17:26.661Z,7.68
2022-08-07T23:20:51.091Z,7.70
2022-08-07T23:24:05.824Z,8.40
2022-08-07T23:26:42.339Z,7.90
2022-08-07T23:30:36.063Z,8.32
2022-08-07T23:34:34.243Z,7.75
2022-08-07T23:35:56.493Z,7.68
2022-08-07T23:38:45.992Z,8.02
2022-08-07T23:42:04.336Z,8.75
2022-08-07T23:44:46.095Z,10.10
2022-08-07T23:47:30.597Z,10.27
2022-08-07T23:50:35.294Z,22.05
2022-08-07T23:53:49.533Z,8.63
2022-08-07T23:56:34.924Z,7.60
